Time;durP1;ratioP1;P1;durP2;ratioP2;P2;SDS_P1;SDS_P2;PMS_P1;PMS_P2;Temp;Humidity;BMP_temperature;BMP_pressure;BME280_temperature;BME280_humidity;BME280_pressure;Samples;Min_cycle;Max_cycle;Signal;HPM_P1;HPM_P2
2022/11/18 00:00:40;;;;;;;5.97;3.20;;;10.60;94.90;;;;;;4973256;28;20195;-81
2022/11/18 00:03:07;;;;;;;5.83;3.00;;;10.70;93.70;;;;;;4989047;28;20168;-79
2022/11/18 00:05:34;;;;;;;7.83;3.47;;;10.60;93.90;;;;;;4990986;28;20210;-80
2022/11/18 00:08:03;;;;;;;6.57;2.67;;;10.60;93.80;;;;;;4974651;28;20198;-81
2022/11/18 00:10:50;;;;;;;8.47;3.07;;;10.60;93.40;;;;;;4993331;28;20168;-79
2022/11/18 00:16:50;;;;;;;5.37;2.67;;;10.60;94.60;;;;;;5019673;23;20256;-86
2022/11/18 00:20:04;;;;;;;5.67;2.40;;;10.50;94.90;;;;;;5037682;28;20190;-85
2022/11/18 00:23:07;;;;;;;6.20;2.60;;;10.50;95.20;;;;;;5135445;23;20229;-81
2022/11/18 00:25:34;;;;;;;5.23;2.30;;;10.50;94.80;;;;;;5061257;28;20225;-83
2022/11/18 00:28:20;;;;;;;6.30;2.53;;;10.50;94.80;;;;;;5061883;28;20200;-80
2022/11/18 00:31:25;;;;;;;5.43;2.50;;;10.50;94.70;;;;;;5059062;28;20181;-80
2022/11/18 00:33:58;;;;;;;4.53;2.30;;;10.60;94.20;;;;;;5061273;28;20154;-87
2022/11/18 00:36:50;;;;;;;9.13;2.63;;;10.70;92.80;;;;;;5059741;28;20138;-87
2022/11/18 00:42:50;;;;;;;6.67;2.40;;;10.70;92.20;;;;;;5060796;28;20273;-86
2022/11/18 00:46:02;;;;;;;5.53;1.80;;;10.60;91.60;;;;;;5053333;23;20297;-86
2022/11/18 00:48:27;;;;;;;7.27;2.70;;;10.60;92.70;;;;;;5004516;28;20158;-84
2022/11/18 00:51:22;;;;;;;4.13;2.07;;;10.60;93.10;;;;;;5041277;28;20158;-86
2022/11/18 00:53:49;;;;;;;6.53;2.50;;;10.50;93.40;;;;;;5037435;28;20274;-83
2022/11/18 00:56:16;;;;;;;4.57;2.00;;;10.60;93.10;;;;;;5039598;28;20184;-89
2022/11/18 00:58:44;;;;;;;4.77;1.87;;;10.60;92.30;;;;;;5034520;28;20664;-87
2022/11/18 01:01:09;;;;;;;6.07;2.10;;;10.70;92.50;;;;;;5031349;28;20710;-88
2022/11/18 01:03:36;;;;;;;4.67;2.30;;;10.70;92.10;;;;;;5028896;28;20261;-86
2022/11/18 01:06:03;;;;;;;5.00;2.00;;;10.60;91.80;;;;;;5013342;28;20297;-89
2022/11/18 01:08:28;;;;;;;4.07;1.70;;;10.50;91.90;;;;;;5031969;28;20173;-87
2022/11/18 01:13:18;;;;;;;6.40;2.00;;;10.60;92.90;;;;;;5004913;28;20178;-86
2022/11/18 01:13:41;;;;;;;5.93;2.10;;;10.50;94.00;;;;;;5019494;28;20650;-84
2022/11/18 01:16:06;;;;;;;3.87;1.73;;;10.50;93.60;;;;;;5002477;28;20188;-88
2022/11/18 01:18:32;;;;;;;3.87;1.70;;;10.40;92.80;;;;;;5021717;28;20163;-87
2022/11/18 01:21:03;;;;;;;4.90;1.70;;;10.40;93.10;;;;;;5002695;28;20180;-88
2022/11/18 01:23:29;;;;;;;5.37;1.80;;;10.40;93.80;;;;;;5021193;28;20217;-90
2022/11/18 01:26:04;;;;;;;5.53;2.07;;;10.40;93.60;;;;;;5019117;28;20202;-82
2022/11/18 01:28:35;;;;;;;4.47;1.50;;;10.40;92.60;;;;;;5017965;28;20172;-82
2022/11/18 01:31:10;;;;;;;5.87;2.17;;;10.40;92.70;;;;;;5002100;28;20194;-87
2022/11/18 01:33:36;;;;;;;4.30;1.70;;;10.30;93.40;;;;;;5019901;28;20220;-86
2022/11/18 01:36:02;;;;;;;5.30;1.50;;;10.30;93.80;;;;;;5018298;28;20174;-84
2022/11/18 01:38:28;;;;;;;3.10;1.60;;;10.30;94.00;;;;;;5018080;28;20677;-89
2022/11/18 01:40:55;;;;;;;3.10;1.80;;;10.30;93.20;;;;;;5017189;28;20170;-85
2022/11/18 01:43:21;;;;;;;3.83;1.60;;;10.30;92.60;;;;;;4999536;28;20198;-84
2022/11/18 01:45:50;;;;;;;5.93;1.60;;;10.30;93.40;;;;;;5017555;28;20216;-88
2022/11/18 01:48:32;;;;;;;3.63;1.70;;;10.30;93.10;;;;;;5000274;28;20217;-88
2022/11/18 01:51:08;;;;;;;4.00;1.57;;;10.20;94.30;;;;;;4999877;28;20186;-80
2022/11/18 01:53:39;;;;;;;6.07;1.63;;;10.20;94.90;;;;;;5018011;28;20174;-81
2022/11/18 01:56:15;;;;;;;4.33;1.83;;;10.30;94.90;;;;;;5019701;28;20155;-83
2022/11/18 01:58:48;;;;;;;3.40;1.40;;;10.10;94.80;;;;;;5018135;28;20177;-84
2022/11/18 02:01:14;;;;;;;5.57;1.73;;;10.10;95.10;;;;;;4999368;28;20539;-84
2022/11/18 02:03:41;;;;;;;3.67;1.50;;;10.10;95.00;;;;;;5017616;28;20177;-87
2022/11/18 02:06:08;;;;;;;6.23;2.00;;;10.00;95.30;;;;;;5002807;28;20308;-87
2022/11/18 02:08:39;;;;;;;3.33;1.70;;;10.00;96.20;;;;;;5020092;28;20189;-86
2022/11/18 02:11:49;;;;;;;4.63;1.50;;;9.90;96.90;;;;;;5019111;28;20171;-86
2022/11/18 02:13:57;;;;;;;4.27;1.50;;;10.00;97.60;;;;;;5017254;28;20242;-86
2022/11/18 02:16:32;;;;;;;3.53;1.77;;;10.00;97.60;;;;;;5000697;28;20175;-86
2022/11/18 02:19:02;;;;;;;4.93;2.10;;;9.90;98.10;;;;;;5000297;28;20181;-81
2022/11/18 02:21:52;;;;;;;3.93;1.80;;;9.90;98.50;;;;;;5016450;28;20261;-83
2022/11/18 02:24:37;;;;;;;3.80;1.77;;;9.90;98.60;;;;;;4998417;28;20198;-88
2022/11/18 02:27:18;;;;;;;3.67;1.67;;;10.00;98.60;;;;;;5016482;28;20233;-82
2022/11/18 02:29:54;;;;;;;3.70;1.70;;;10.00;98.50;;;;;;5016785;28;20301;-87
2022/11/18 02:32:49;;;;;;;5.50;1.93;;;9.90;98.70;;;;;;5017481;28;20224;-83
2022/11/18 02:35:25;;;;;;;5.27;1.80;;;9.90;99.20;;;;;;4997386;28;20245;-82
2022/11/18 02:37:57;;;;;;;3.40;1.70;;;9.90;99.90;;;;;;5017513;28;20212;-85
2022/11/18 02:40:34;;;;;;;5.30;1.70;;;9.80;99.90;;;;;;5001762;28;20202;-78
2022/11/18 02:43:05;;;;;;;3.80;1.87;;;9.80;99.90;;;;;;5029099;28;20182;-80
2022/11/18 02:45:32;;;;;;;3.20;1.83;;;9.80;99.90;;;;;;5037337;28;20225;-84
2022/11/18 02:48:02;;;;;;;4.37;1.60;;;9.80;99.90;;;;;;5038897;28;20158;-81
2022/11/18 02:50:37;;;;;;;3.83;1.73;;;9.80;99.90;;;;;;5019439;28;20190;-88
2022/11/18 02:53:13;;;;;;;6.47;1.67;;;9.90;99.90;;;;;;5038538;28;20162;-84
2022/11/18 02:55:52;;;;;;;3.20;2.00;;;9.80;99.90;;;;;;5035882;28;20174;-81
2022/11/18 02:58:20;;;;;;;2.97;1.60;;;9.90;99.90;;;;;;5031372;28;20186;-81
2022/11/18 03:00:53;;;;;;;3.50;2.43;;;9.90;99.90;;;;;;5018922;28;20166;-86
2022/11/18 03:03:31;;;;;;;6.93;2.40;;;9.80;99.90;;;;;;5018131;28;20177;-85
2022/11/18 03:06:08;;;;;;;3.03;1.83;;;9.80;99.90;;;;;;5015859;28;20200;-82
2022/11/18 03:08:58;;;;;;;4.97;2.03;;;9.80;99.90;;;;;;4997158;28;20170;-81
2022/11/18 03:11:28;;;;;;;4.70;2.00;;;9.70;99.90;;;;;;5013961;28;20217;-82
2022/11/18 03:13:53;;;;;;;5.07;2.20;;;9.70;99.90;;;;;;4997125;28;20178;-86
2022/11/18 03:16:26;;;;;;;3.93;1.80;;;9.70;99.90;;;;;;5014513;28;20250;-81
2022/11/18 03:19:16;;;;;;;3.63;1.83;;;9.60;99.90;;;;;;5014168;28;20220;-80
2022/11/18 03:22:01;;;;;;;4.70;2.03;;;9.70;99.90;;;;;;5016414;28;20197;-84
2022/11/18 03:24:32;;;;;;;2.70;1.70;;;9.60;99.90;;;;;;5019965;28;20190;-87
2022/11/18 03:27:30;;;;;;;3.60;2.10;;;9.50;99.90;;;;;;5018273;28;20202;-88
2022/11/18 03:30:09;;;;;;;4.80;2.00;;;9.50;99.90;;;;;;5008226;28;20170;-87
2022/11/18 03:32:43;;;;;;;4.43;2.00;;;9.50;99.90;;;;;;5003798;28;20174;-88
2022/11/18 03:35:13;;;;;;;2.97;1.90;;;9.40;99.90;;;;;;5025385;28;20178;-87
2022/11/18 03:37:41;;;;;;;3.93;2.07;;;9.50;99.90;;;;;;5038824;28;20154;-84
2022/11/18 03:40:22;;;;;;;4.57;2.20;;;9.40;99.90;;;;;;5020758;28;20174;-81
2022/11/18 03:42:53;;;;;;;3.67;2.10;;;9.40;99.90;;;;;;5036688;28;20198;-82
2022/11/18 03:45:36;;;;;;;4.77;2.23;;;9.40;99.90;;;;;;5027373;28;20222;-86
2022/11/18 03:48:15;;;;;;;7.00;2.40;;;9.40;99.90;;;;;;5018889;28;20158;-87
2022/11/18 03:50:55;;;;;;;5.20;2.30;;;9.40;99.90;;;;;;5018110;28;20174;-86
2022/11/18 03:53:26;;;;;;;5.00;2.07;;;9.40;99.90;;;;;;5016878;28;20568;-86
2022/11/18 03:56:01;;;;;;;4.73;2.03;;;9.30;99.90;;;;;;4998600;28;20607;-87
2022/11/18 03:58:44;;;;;;;7.43;2.27;;;9.30;99.90;;;;;;5000340;28;20975;-88
2022/11/18 04:01:22;;;;;;;4.93;1.97;;;9.30;99.90;;;;;;5020057;28;20338;-85
2022/11/18 04:03:47;;;;;;;4.00;2.13;;;9.40;99.90;;;;;;5003837;28;20196;-86
2022/11/18 04:06:36;;;;;;;7.47;2.03;;;9.40;99.90;;;;;;5003626;28;20209;-86
2022/11/18 04:09:10;;;;;;;3.77;1.80;;;9.40;99.90;;;;;;5033542;28;20229;-85
2022/11/18 04:14:38;;;;;;;6.47;2.30;;;9.40;99.90;;;;;;5021338;28;20153;-86
2022/11/18 04:17:26;;;;;;;3.20;1.90;;;9.30;99.90;;;;;;5021904;28;20166;-85
2022/11/18 04:19:54;;;;;;;6.07;2.40;;;9.40;99.90;;;;;;5002246;28;20220;-86
2022/11/18 04:22:20;;;;;;;5.97;2.20;;;9.40;99.90;;;;;;5005554;28;20523;-86
2022/11/18 04:24:46;;;;;;;4.73;2.57;;;9.40;99.90;;;;;;5021666;28;20217;-87
2022/11/18 04:27:12;;;;;;;5.90;1.77;;;9.40;99.90;;;;;;5020327;28;20213;-85
2022/11/18 04:29:38;;;;;;;12.00;2.00;;;9.40;99.90;;;;;;5020903;28;20181;-87
2022/11/18 04:32:04;;;;;;;5.17;2.20;;;9.30;99.90;;;;;;5021478;28;20171;-86
2022/11/18 04:34:30;;;;;;;3.97;1.90;;;9.30;99.90;;;;;;5003200;28;20626;-87
2022/11/18 04:36:57;;;;;;;4.93;2.20;;;9.30;99.90;;;;;;5002056;28;20290;-86
2022/11/18 04:39:23;;;;;;;6.70;2.40;;;9.40;99.90;;;;;;5018684;28;20177;-85
2022/11/18 04:41:54;;;;;;;4.63;1.93;;;9.50;99.90;;;;;;5024768;28;20190;-86
2022/11/18 04:44:29;;;;;;;5.13;2.20;;;9.50;99.90;;;;;;5028900;28;20213;-85
2022/11/18 04:46:56;;;;;;;6.30;2.20;;;9.40;99.90;;;;;;5028102;28;20219;-85
2022/11/18 04:49:23;;;;;;;5.93;2.00;;;9.30;99.90;;;;;;5002579;28;20226;-87
2022/11/18 04:51:49;;;;;;;4.93;1.93;;;9.20;99.90;;;;;;5005067;28;20204;-88
2022/11/18 04:54:16;;;;;;;5.00;2.30;;;9.30;99.90;;;;;;5022822;28;20170;-86
2022/11/18 04:56:44;;;;;;;4.93;2.90;;;9.20;99.90;;;;;;5024158;28;20165;-87
2022/11/18 04:59:11;;;;;;;4.90;2.60;;;9.30;99.90;;;;;;5023805;28;20177;-84
2022/11/18 05:01:37;;;;;;;5.07;2.30;;;9.30;99.90;;;;;;5004132;28;20527;-86
2022/11/18 05:04:04;;;;;;;6.00;2.50;;;9.20;99.90;;;;;;5020576;28;20661;-86
2022/11/18 05:06:30;;;;;;;6.00;2.60;;;9.20;99.90;;;;;;5019424;28;20233;-85
2022/11/18 05:08:58;;;;;;;4.67;2.20;;;9.20;99.90;;;;;;5017711;28;20175;-86
2022/11/18 05:14:09;;;;;;;4.80;2.53;;;9.20;99.90;;;;;;5017897;28;20285;-87
2022/11/18 05:16:34;;;;;;;4.57;2.10;;;9.40;99.90;;;;;;5021249;28;20182;-87
2022/11/18 05:19:04;;;;;;;6.43;2.80;;;9.20;99.90;;;;;;5021330;28;20631;-86
2022/11/18 05:21:30;;;;;;;6.43;2.60;;;9.10;99.90;;;;;;5019406;28;20174;-87
2022/11/18 05:23:59;;;;;;;3.87;2.33;;;9.10;99.90;;;;;;5020760;28;20297;-87
2022/11/18 05:26:24;;;;;;;7.80;2.77;;;9.10;99.90;;;;;;5004135;28;20556;-86
2022/11/18 05:28:50;;;;;;;3.10;2.17;;;9.10;99.90;;;;;;5021563;28;20185;-87
2022/11/18 05:31:17;;;;;;;6.87;2.23;;;9.10;99.90;;;;;;4996548;28;20191;-87
2022/11/18 05:33:44;;;;;;;5.90;2.23;;;9.00;99.90;;;;;;5033487;28;20162;-87
2022/11/18 05:36:14;;;;;;;6.73;2.63;;;9.00;99.90;;;;;;5015383;28;20182;-86
2022/11/18 05:38:40;;;;;;;9.20;2.70;;;9.10;99.90;;;;;;5037220;28;20154;-88
2022/11/18 05:45:01;;;;;;;5.70;2.80;;;9.20;99.90;;;;;;5040554;28;20280;-85
2022/11/18 05:48:15;;;;;;;6.60;2.87;;;9.10;99.90;;;;;;5039269;28;20175;-87
2022/11/18 05:51:16;;;;;;;5.57;2.50;;;9.00;99.90;;;;;;5037984;28;20182;-84
2022/11/18 05:53:50;;;;;;;7.53;3.40;;;9.00;99.90;;;;;;5028141;28;20175;-87
2022/11/18 05:56:38;;;;;;;7.53;2.57;;;8.90;99.90;;;;;;5026395;23;20277;-86
2022/11/18 05:59:04;;;;;;;7.83;2.90;;;9.00;99.90;;;;;;5018486;28;20181;-87
2022/11/18 06:01:55;;;;;;;9.17;2.80;;;9.00;99.90;;;;;;5030708;28;20234;-87
2022/11/18 06:04:39;;;;;;;8.33;3.00;;;9.00;99.90;;;;;;5032579;28;20170;-81
2022/11/18 06:07:38;;;;;;;6.00;2.60;;;9.00;99.90;;;;;;5038131;28;20186;-82
2022/11/18 06:10:05;;;;;;;7.53;2.83;;;9.00;99.90;;;;;;5034821;28;20175;-84
2022/11/18 06:12:39;;;;;;;8.30;2.43;;;8.90;99.90;;;;;;5011738;28;20166;-81
2022/11/18 06:15:13;;;;;;;6.80;2.83;;;8.90;99.90;;;;;;5018461;28;20228;-85
2022/11/18 06:21:04;;;;;;;9.53;2.60;;;8.90;99.90;;;;;;5021894;28;20260;-84
2022/11/18 06:23:41;;;;;;;6.63;2.77;;;8.90;99.90;;;;;;5024273;28;20198;-84
2022/11/18 06:26:08;;;;;;;5.70;2.53;;;8.90;99.90;;;;;;5005193;28;20229;-81
2022/11/18 06:28:46;;;;;;;5.07;2.53;;;8.90;99.90;;;;;;5004921;28;20174;-88
2022/11/18 06:31:12;;;;;;;12.03;3.23;;;8.90;99.90;;;;;;5017396;28;20167;-86
2022/11/18 06:33:44;;;;;;;7.77;3.10;;;8.90;99.90;;;;;;5021022;28;20166;-88
2022/11/18 06:36:10;;;;;;;7.47;2.63;;;8.90;99.90;;;;;;5014138;28;20241;-81
2022/11/18 06:38:44;;;;;;;7.50;3.00;;;8.90;99.90;;;;;;5039326;28;20165;-85
2022/11/18 06:41:09;;;;;;;7.13;3.10;;;8.90;99.90;;;;;;5039126;28;20189;-83
2022/11/18 06:43:40;;;;;;;7.23;3.37;;;8.90;99.90;;;;;;5032108;23;20256;-84
2022/11/18 06:49:56;;;;;;;11.00;2.93;;;8.90;99.90;;;;;;5004922;28;20229;-85
2022/11/18 06:52:40;;;;;;;8.10;3.10;;;9.00;99.90;;;;;;5003297;28;20155;-87
2022/11/18 06:55:07;;;;;;;7.97;2.37;;;9.00;99.90;;;;;;5003437;28;20567;-84
2022/11/18 06:57:38;;;;;;;6.67;3.47;;;8.90;99.90;;;;;;5011164;28;20197;-86
2022/11/18 07:00:05;;;;;;;6.47;2.83;;;8.90;99.90;;;;;;5009620;28;20167;-85
2022/11/18 07:02:31;;;;;;;8.70;3.30;;;8.90;99.90;;;;;;5003281;28;20531;-85
2022/11/18 07:04:56;;;;;;;5.87;3.00;;;9.00;99.90;;;;;;5019356;28;20180;-83
2022/11/18 07:07:25;;;;;;;15.10;7.67;;;9.00;99.90;;;;;;5005061;28;20282;-85
2022/11/18 07:09:52;;;;;;;7.97;3.50;;;9.10;99.90;;;;;;5012360;28;20221;-82
2022/11/18 07:13:03;;;;;;;10.10;3.10;;;9.10;99.90;;;;;;5018708;28;20166;-83
2022/11/18 07:15:45;;;;;;;10.93;3.33;;;9.20;99.90;;;;;;5033059;28;20186;-85
2022/11/18 07:18:40;;;;;;;6.40;2.57;;;9.20;99.90;;;;;;5003182;28;20178;-85
2022/11/18 07:21:31;;;;;;;8.87;3.17;;;9.20;99.90;;;;;;5019986;28;20147;-85
2022/11/18 07:23:58;;;;;;;5.33;2.60;;;9.20;99.90;;;;;;5017313;28;20162;-85
2022/11/18 07:26:27;;;;;;;6.27;2.83;;;9.20;99.90;;;;;;5212942;23;20228;-86
2022/11/18 07:29:32;;;;;;;8.17;2.57;;;9.20;99.90;;;;;;5036630;28;20246;-85
2022/11/18 07:32:00;;;;;;;6.77;2.50;;;9.20;99.90;;;;;;5034408;28;20184;-85
2022/11/18 07:39:59;;;;;;;8.87;3.23;;;9.50;99.90;;;;;;4699356;26;20226;-83
2022/11/18 07:45:19;;;;;;;6.13;2.50;;;9.50;99.90;;;;;;5015991;23;20233;-85
2022/11/18 07:47:46;;;;;;;8.07;3.13;;;9.50;99.90;;;;;;4989890;28;20206;-85
2022/11/18 07:50:45;;;;;;;9.70;3.40;;;9.60;99.90;;;;;;5361753;23;20197;-84
2022/11/18 07:54:31;;;;;;;6.17;3.00;;;9.60;99.90;;;;;;5424165;23;20286;-84
2022/11/18 07:57:18;;;;;;;8.63;2.53;;;9.60;99.90;;;;;;4989757;28;20174;-86
2022/11/18 08:02:30;;;;;;;6.37;2.80;;;9.60;99.90;;;;;;5447144;23;20226;-82
2022/11/18 08:05:27;;;;;;;5.97;2.87;;;9.50;99.90;;;;;;5276234;23;20237;-81
2022/11/18 08:15:42;;;;;;;7.63;2.90;;;9.60;99.90;;;;;;5029020;28;20213;-84
2022/11/18 08:18:08;;;;;;;4.63;2.70;;;9.60;99.90;;;;;;5015530;28;20178;-86
2022/11/18 08:20:34;;;;;;;8.80;3.40;;;9.60;99.90;;;;;;5018222;28;20163;-85
2022/11/18 08:23:06;;;;;;;8.77;3.17;;;9.60;99.90;;;;;;5018243;28;20155;-85
2022/11/18 08:25:33;;;;;;;7.53;3.30;;;9.70;99.90;;;;;;4999510;28;20206;-85
2022/11/18 08:28:00;;;;;;;7.80;3.50;;;9.70;99.90;;;;;;5017200;28;20183;-86
2022/11/18 08:30:26;;;;;;;5.73;3.07;;;9.70;99.90;;;;;;5001063;28;20159;-86
2022/11/18 08:32:55;;;;;;;8.03;3.63;;;9.80;99.90;;;;;;5000892;28;20173;-86
2022/11/18 08:35:26;;;;;;;5.90;3.20;;;9.80;99.90;;;;;;4997975;28;20165;-86
2022/11/18 08:37:55;;;;;;;13.20;3.73;;;9.80;99.90;;;;;;4997766;28;20182;-86
2022/11/18 08:40:26;;;;;;;9.80;3.83;;;9.80;99.90;;;;;;4999280;28;20214;-86
2022/11/18 08:42:54;;;;;;;7.73;3.57;;;9.90;99.90;;;;;;5026622;28;20170;-86
2022/11/18 08:45:22;;;;;;;9.53;3.50;;;10.00;99.90;;;;;;5033708;28;20209;-84
2022/11/18 08:47:51;;;;;;;10.30;3.43;;;10.00;99.90;;;;;;5040949;28;20227;-82
2022/11/18 08:50:28;;;;;;;8.17;3.50;;;10.00;99.90;;;;;;5041206;28;20159;-83
2022/11/18 08:52:53;;;;;;;10.00;3.63;;;10.20;99.90;;;;;;5041252;28;20169;-84
2022/11/18 08:55:22;;;;;;;9.97;3.90;;;10.10;99.40;;;;;;5031687;28;20202;-82
2022/11/18 08:57:48;;;;;;;8.40;3.80;;;10.10;99.90;;;;;;5022922;28;20617;-83
2022/11/18 09:00:34;;;;;;;9.50;3.97;;;10.10;99.90;;;;;;5019450;28;20546;-86
2022/11/18 09:03:00;;;;;;;6.13;3.97;;;10.10;99.90;;;;;;5002990;28;20698;-83
2022/11/18 09:05:25;;;;;;;5.70;3.90;;;10.20;99.60;;;;;;5001234;28;20238;-84
2022/11/18 09:11:18;;;;;;;9.27;4.17;;;10.20;98.20;;;;;;5139169;23;20234;-81
2022/11/18 09:14:09;;;;;;;9.47;3.47;;;10.20;98.50;;;;;;4983817;28;20202;-81
2022/11/18 09:19:39;;;;;;;7.63;3.10;;;10.30;97.80;;;;;;5070755;23;20230;-81
2022/11/18 09:22:08;;;;;;;7.60;3.03;;;10.30;97.90;;;;;;5033762;28;20184;-81
2022/11/18 09:25:13;;;;;;;8.87;3.53;;;10.40;98.10;;;;;;5003158;28;20175;-81
2022/11/18 09:27:46;;;;;;;12.17;4.23;;;10.40;97.10;;;;;;5019928;28;20190;-79
2022/11/18 09:30:13;;;;;;;8.33;2.60;;;10.40;96.10;;;;;;5033223;28;20642;-82
2022/11/18 09:32:43;;;;;;;7.13;3.33;;;10.40;96.70;;;;;;5012802;28;20178;-80
2022/11/18 09:35:10;;;;;;;9.30;3.13;;;10.50;95.70;;;;;;5028618;28;20178;-82
2022/11/18 09:38:01;;;;;;;6.13;2.77;;;10.60;93.90;;;;;;5028747;28;20221;-80
2022/11/18 09:41:08;;;;;;;9.90;2.90;;;10.60;92.20;;;;;;5014917;28;20159;-81
2022/11/18 09:46:25;;;;;;;7.63;3.00;;;10.80;89.70;;;;;;5144680;23;20242;-85
2022/11/18 09:51:45;;;;;;;8.33;2.83;;;10.80;87.80;;;;;;5018047;28;20189;-84
2022/11/18 09:54:29;;;;;;;5.20;2.50;;;10.70;90.90;;;;;;5018410;28;20178;-85
2022/11/18 09:56:55;;;;;;;9.40;2.70;;;10.70;91.70;;;;;;5018392;28;20170;-84
2022/11/18 09:59:26;;;;;;;8.00;2.80;;;10.70;92.10;;;;;;5019373;28;20178;-83
2022/11/18 10:01:56;;;;;;;8.77;2.80;;;10.70;92.30;;;;;;5005556;28;20178;-85
2022/11/18 10:04:22;;;;;;;7.40;2.70;;;10.70;91.90;;;;;;5006181;28;20193;-86
2022/11/18 10:06:49;;;;;;;6.47;2.43;;;11.00;90.40;;;;;;5014493;28;20210;-83
2022/11/18 10:09:36;;;;;;;7.03;2.40;;;11.10;83.10;;;;;;5022430;28;20172;-82
2022/11/18 10:12:17;;;;;;;7.20;2.70;;;11.00;81.00;;;;;;5022750;28;20201;-84
2022/11/18 10:15:01;;;;;;;7.17;2.93;;;10.90;83.70;;;;;;5038818;28;20162;-85
2022/11/18 10:17:58;;;;;;;7.63;2.80;;;10.90;85.80;;;;;;5013576;28;20282;-85
2022/11/18 10:20:44;;;;;;;3.27;1.70;;;10.90;88.50;;;;;;5003493;28;20170;-89
2022/11/18 10:23:30;;;;;;;5.80;2.60;;;11.00;87.50;;;;;;5021140;28;20165;-87
2022/11/18 10:25:56;;;;;;;5.13;2.27;;;11.10;85.00;;;;;;4999708;28;20209;-86
2022/11/18 10:28:29;;;;;;;5.50;2.20;;;11.20;81.10;;;;;;5018293;28;20657;-88
2022/11/18 10:31:14;;;;;;;8.63;2.90;;;11.20;79.20;;;;;;5017172;28;20198;-84
2022/11/18 10:33:41;;;;;;;5.23;2.13;;;11.30;76.40;;;;;;5017647;28;20166;-85
2022/11/18 10:36:09;;;;;;;5.33;2.50;;;11.30;76.00;;;;;;5000598;28;20213;-86
2022/11/18 10:38:35;;;;;;;9.13;2.30;;;11.40;73.60;;;;;;4999618;28;20187;-83
2022/11/18 10:41:05;;;;;;;3.77;1.77;;;11.40;67.80;;;;;;5016556;28;20188;-84
2022/11/18 10:43:52;;;;;;;6.27;1.80;;;11.40;71.50;;;;;;4998413;28;20277;-86
2022/11/18 10:46:33;;;;;;;5.93;2.00;;;11.40;65.30;;;;;;5017214;28;20298;-87
2022/11/18 10:49:08;;;;;;;4.97;2.20;;;11.40;67.40;;;;;;5002503;28;20167;-85
2022/11/18 10:51:35;;;;;;;4.73;1.90;;;11.50;67.80;;;;;;5004680;28;20177;-83
2022/11/18 10:54:11;;;;;;;6.70;2.23;;;11.50;64.10;;;;;;5002443;28;20185;-84
2022/11/18 10:57:06;;;;;;;4.37;1.90;;;11.40;68.70;;;;;;5011872;28;20258;-85
2022/11/18 10:59:37;;;;;;;4.60;1.70;;;11.40;68.10;;;;;;4999993;28;20167;-84
2022/11/18 11:02:10;;;;;;;9.87;2.50;;;11.30;71.00;;;;;;4999839;28;20187;-87
2022/11/18 11:04:38;;;;;;;5.10;1.80;;;11.40;69.50;;;;;;4996776;28;20245;-86
2022/11/18 11:07:24;;;;;;;4.57;2.07;;;11.20;70.30;;;;;;5003697;28;20217;-86
2022/11/18 11:10:22;;;;;;;8.33;2.53;;;11.30;73.30;;;;;;5005291;28;20262;-81
2022/11/18 11:13:03;;;;;;;6.77;2.57;;;11.30;71.70;;;;;;4982085;28;20210;-84
2022/11/18 11:15:44;;;;;;;5.43;1.97;;;11.30;72.60;;;;;;5000612;28;20159;-86
2022/11/18 11:20:59;;;;;;;9.13;2.43;;;11.30;74.00;;;;;;5016839;28;20549;-83
2022/11/18 11:23:26;;;;;;;6.23;2.17;;;11.40;70.00;;;;;;5001235;28;20160;-84
2022/11/18 11:26:00;;;;;;;8.13;2.20;;;11.50;69.50;;;;;;4997498;28;20586;-82
2022/11/18 11:28:30;;;;;;;5.93;1.93;;;11.50;65.40;;;;;;5005960;28;20170;-83
2022/11/18 11:31:21;;;;;;;5.50;2.10;;;11.50;64.00;;;;;;4980596;28;20167;-84
2022/11/18 11:34:27;;;;;;;6.67;2.30;;;11.50;63.70;;;;;;4994444;28;20167;-83
2022/11/18 11:37:27;;;;;;;5.57;2.20;;;11.50;66.20;;;;;;4996022;28;20167;-86
2022/11/18 11:39:56;;;;;;;5.83;1.80;;;11.50;65.40;;;;;;4993946;28;20269;-86
2022/11/18 11:42:51;;;;;;;8.57;2.20;;;11.50;66.10;;;;;;4995430;28;20179;-85
2022/11/18 11:45:40;;;;;;;6.60;2.23;;;11.50;64.00;;;;;;4977746;28;20190;-85
2022/11/18 11:48:21;;;;;;;5.87;2.00;;;11.60;61.90;;;;;;4996270;28;20206;-85
2022/11/18 11:50:52;;;;;;;5.07;2.13;;;11.60;63.10;;;;;;4995542;28;20238;-86
2022/11/18 11:53:30;;;;;;;6.77;1.90;;;11.70;57.60;;;;;;4994540;28;20265;-85
2022/11/18 11:56:30;;;;;;;7.37;1.87;;;11.80;53.60;;;;;;4996017;28;20626;-86
2022/11/18 11:59:09;;;;;;;7.13;2.20;;;11.70;55.30;;;;;;4995682;28;20171;-87
2022/11/18 12:02:00;;;;;;;6.50;2.10;;;11.80;56.20;;;;;;4995082;28;20178;-87
2022/11/18 12:04:49;;;;;;;10.63;1.97;;;11.70;56.10;;;;;;4996690;28;20172;-85
2022/11/18 12:07:28;;;;;;;5.47;2.23;;;11.60;57.10;;;;;;5002010;28;20272;-84
2022/11/18 12:10:36;;;;;;;6.17;2.27;;;11.60;59.00;;;;;;4998454;28;20173;-84
2022/11/18 12:13:38;;;;;;;9.37;3.10;;;11.80;56.40;;;;;;4996388;28;20171;-84
2022/11/18 12:16:24;;;;;;;7.20;2.93;;;11.80;54.60;;;;;;4997586;28;20171;-84
2022/11/18 12:19:13;;;;;;;7.03;1.93;;;11.70;57.20;;;;;;5005725;28;20190;-83
2022/11/18 12:22:02;;;;;;;6.03;2.03;;;11.60;61.20;;;;;;4991553;28;20194;-83
2022/11/18 12:25:00;;;;;;;7.77;1.80;;;11.70;60.40;;;;;;5013246;28;20152;-85
2022/11/18 12:27:33;;;;;;;6.20;2.13;;;11.70;60.30;;;;;;5005867;28;20642;-86
2022/11/18 12:30:02;;;;;;;5.40;2.10;;;11.70;57.90;;;;;;5005620;28;20178;-86
2022/11/18 12:32:44;;;;;;;5.17;1.80;;;11.90;56.10;;;;;;4991774;28;20242;-84
2022/11/18 12:35:31;;;;;;;7.03;2.13;;;11.70;57.10;;;;;;4994412;28;20175;-84
2022/11/18 12:37:58;;;;;;;4.83;2.30;;;11.70;59.60;;;;;;5027432;28;20161;-83
2022/11/18 12:40:41;;;;;;;4.17;1.90;;;11.70;61.40;;;;;;5008387;28;20171;-83
2022/11/18 12:43:47;;;;;;;8.90;1.97;;;11.80;63.80;;;;;;5027167;28;20159;-86
2022/11/18 12:46:36;;;;;;;4.87;1.90;;;11.90;59.00;;;;;;5028107;28;20263;-82
2022/11/18 12:49:20;;;;;;;10.23;2.20;;;11.80;56.80;;;;;;5010431;28;20175;-80
2022/11/18 12:51:49;;;;;;;4.57;1.90;;;11.90;60.70;;;;;;5029665;28;20166;-80
2022/11/18 12:55:05;;;;;;;6.90;2.37;;;11.90;59.40;;;;;;5022452;28;20157;-81
2022/11/18 12:57:39;;;;;;;7.53;2.17;;;12.10;56.10;;;;;;5018688;28;20187;-80
2022/11/18 13:00:29;;;;;;;4.07;1.80;;;11.90;55.80;;;;;;5021765;28;20175;-78
2022/11/18 13:02:58;;;;;;;6.73;2.60;;;12.10;57.70;;;;;;5023352;28;20255;-82
2022/11/18 13:05:42;;;;;;;6.80;2.40;;;12.10;57.00;;;;;;5036884;28;20164;-81
2022/11/18 13:08:40;;;;;;;8.90;2.57;;;12.20;55.40;;;;;;5002593;28;20182;-82
2022/11/18 13:11:44;;;;;;;8.10;2.70;;;12.10;57.00;;;;;;5037352;28;20160;-85
2022/11/18 13:17:57;;;;;;;8.80;2.83;;;12.10;60.90;;;;;;5036741;28;20224;-87
2022/11/18 13:23:56;;;;;;;7.53;2.80;;;12.40;56.20;;;;;;1800382;22;20597;-81
2022/11/18 13:26:43;;;;;;;8.47;2.47;;;12.40;52.70;;;;;;4998861;28;20245;-86
2022/11/18 13:29:25;;;;;;;10.70;2.43;;;12.40;55.30;;;;;;5032422;28;20175;-86
2022/11/18 13:32:20;;;;;;;5.87;2.40;;;12.40;53.10;;;;;;5030863;28;20229;-86
2022/11/18 13:35:26;;;;;;;8.87;2.43;;;12.40;54.30;;;;;;5068382;23;20224;-83
2022/11/18 13:38:13;;;;;;;5.50;2.10;;;12.40;54.00;;;;;;5292938;22;20229;-81
2022/11/18 13:43:34;;;;;;;6.03;2.50;;;12.60;46.10;;;;;;5051264;28;20228;-83
2022/11/18 13:46:38;;;;;;;9.03;2.97;;;12.50;50.50;;;;;;5055079;28;20175;-82
2022/11/18 13:49:45;;;;;;;10.17;2.33;;;12.30;55.80;;;;;;5050351;28;20182;-84
2022/11/18 13:52:45;;;;;;;9.27;2.43;;;12.30;57.70;;;;;;5046333;28;20177;-85
2022/11/18 13:55:24;;;;;;;6.97;2.57;;;12.20;57.90;;;;;;5027547;28;20178;-84
2022/11/18 13:58:03;;;;;;;8.83;2.43;;;12.30;57.00;;;;;;5026843;28;20250;-86
2022/11/18 14:00:34;;;;;;;6.30;2.23;;;12.30;57.60;;;;;;5031845;28;20292;-85
2022/11/18 14:03:04;;;;;;;13.17;2.77;;;12.30;59.10;;;;;;5030072;28;20231;-82
2022/11/18 14:05:40;;;;;;;9.73;2.47;;;12.60;58.00;;;;;;5015145;28;20193;-82
2022/11/18 14:08:26;;;;;;;5.90;2.30;;;12.40;55.60;;;;;;5027238;28;20181;-81
2022/11/18 14:11:05;;;;;;;8.17;2.20;;;12.40;55.10;;;;;;5015539;28;20205;-85
2022/11/18 14:13:32;;;;;;;11.73;2.80;;;12.40;54.30;;;;;;5013031;28;20191;-84
2022/11/18 14:16:18;;;;;;;8.87;2.70;;;12.50;52.70;;;;;;5036388;28;20169;-83
2022/11/18 14:21:34;;;;;;;7.80;2.80;;;12.60;46.80;;;;;;5096760;28;20196;-83
2022/11/18 14:24:01;;;;;;;7.70;2.77;;;12.60;46.20;;;;;;5064250;28;20160;-82
2022/11/18 14:26:42;;;;;;;8.20;2.73;;;12.60;48.30;;;;;;5060881;28;20246;-86
2022/11/18 14:32:01;;;;;;;6.50;2.63;;;12.60;54.00;;;;;;4971398;26;20720;-86
2022/11/18 14:37:04;;;;;;;7.40;2.63;;;12.50;58.90;;;;;;5076935;28;20219;-85
2022/11/18 14:39:59;;;;;;;9.30;3.00;;;12.60;59.80;;;;;;5045511;28;20223;-82
2022/11/18 14:43:06;;;;;;;13.20;3.47;;;12.60;58.50;;;;;;5060366;28;20175;-85
2022/11/18 14:48:56;;;;;;;11.80;3.30;;;12.90;53.30;;;;;;5076331;28;20232;-85
2022/11/18 14:51:28;;;;;;;7.90;3.37;;;12.80;55.80;;;;;;5070882;28;20158;-86
2022/11/18 14:54:18;;;;;;;8.97;3.07;;;12.70;60.00;;;;;;5069757;28;20218;-86
2022/11/18 14:56:46;;;;;;;6.43;2.87;;;12.60;63.90;;;;;;5066102;28;20192;-88
2022/11/18 14:59:25;;;;;;;9.27;3.43;;;12.60;65.20;;;;;;5031842;28;20604;-84